Lacon, IL

7:10 PM CST on December 05, 2019 (GMT -0600)
Lacon

Weather History for KC75 - October, 2019

Change the Weather History Date:

Tuesday, October 15, 2019

  Actual Average (KVYS) Record (KVYS)
Temperature  
Mean Temperature 53 °F -  
Max Temperature 68 °F 66 °F 86 °F (1989)
Min Temperature 38 °F 41 °F 26 °F (1972)
Degree Days  
Heating Degree Days 12    
Growing Degree Days 3 (Base 50)    
Moisture  
Dew Point 43 °F    
Average Humidity 73    
Maximum Humidity 93    
Minimum Humidity 49    
Precipitation  
Precipitation 0.00 in - - ()
Sea Level Pressure  
Sea Level Pressure 29.85 in    
Wind  
Wind Speed 6 mph (SW)    
Max Wind Speed 17 mph    
Max Gust Speed 25 mph    
Visibility 10 miles    
Events Rain    
Averages and records for this station are not official NWS values.
T = Trace of Precipitation, MM = Missing Value Source: NWS Daily Summary

Daily Weather History Graph

Daily Weather History Graph

Search for Another Location

Airport or City:

Astronomy

Oct. 15, 2019 Rise Set
Actual Time 7:08 AM CDT 6:17 PM CDT
Civil Twilight 6:40 AM CDT 6:44 PM CDT
Nautical Twilight 6:08 AM CDT 7:16 PM CDT
Astronomical Twilight 5:37 AM CDT 7:48 PM CDT
Moon 7:36 PM CDT (10/15) 8:39 AM CDT (10/15)
Length of Visible Light 12h 03m
Length of Day
11h 08m
Full, 97% of the Moon is Illuminated
Oct 15
Full
Oct 21
Last Quarter
Oct 27
New
Nov 4
First Quarter
Nov 12
Full

Hourly Weather History & Observations

Time (CDT) Temp. Windchill Dew Point Humidity Pressure Visibility Wind Dir Wind Speed Gust Speed Precip Events Conditions
12:15 AM 42.6 °F 40.9 °F 36.0 °F 77% 29.99 in 10.0 mi SSE 3.5 mph - N/A   Clear
12:35 AM 44.1 °F 41.5 °F 36.0 °F 73% 29.98 in 10.0 mi SSE 4.6 mph - N/A   Clear
12:55 AM 42.8 °F 41.1 °F 35.8 °F 76% 29.98 in 10.0 mi SSE 3.5 mph - N/A   Clear
1:15 AM 44.1 °F - 35.8 °F 73% 29.98 in 10.0 mi Calm Calm - N/A   Clear
1:35 AM 44.2 °F - 35.8 °F 72% 29.98 in 10.0 mi Calm Calm - N/A   Clear
1:55 AM 39.6 °F - 36.1 °F 88% 29.99 in 10.0 mi Calm Calm - N/A   Clear
2:15 AM 38.5 °F - 36.3 °F 92% 29.98 in 10.0 mi Calm Calm - N/A   Clear
2:35 AM 38.3 °F - 36.3 °F 93% 29.98 in 10.0 mi Calm Calm - N/A   Clear
2:55 AM 38.3 °F - 36.3 °F 93% 29.98 in 10.0 mi Calm Calm - N/A   Clear
3:15 AM 39.4 °F 36.1 °F 36.5 °F 89% 29.97 in 10.0 mi ESE 4.6 mph - N/A   Clear
3:35 AM 39.2 °F 35.0 °F 36.0 °F 88% 29.96 in 10.0 mi East 5.8 mph - N/A   Clear
3:55 AM 40.1 °F 35.3 °F 35.8 °F 85% 29.95 in 10.0 mi East 6.9 mph - N/A   Clear
4:15 AM 40.5 °F 37.3 °F 35.6 °F 83% 29.94 in 10.0 mi East 4.6 mph - N/A   Clear
4:35 AM 41.0 °F 38.0 °F 35.6 °F 81% 29.93 in 10.0 mi East 4.6 mph - N/A   Clear
4:55 AM 40.8 °F 38.8 °F 35.1 °F 80% 29.92 in 10.0 mi SSE 3.5 mph - N/A   Clear
5:15 AM 41.2 °F - 35.8 °F 81% 29.91 in 10.0 mi Calm Calm - N/A   Clear
5:35 AM 39.0 °F - 35.6 °F 88% 29.91 in 10.0 mi Calm Calm - N/A   Clear
5:55 AM 39.9 °F 37.8 °F 36.1 °F 86% 29.91 in 10.0 mi ESE 3.5 mph - N/A   Clear
6:15 AM 44.4 °F 42.0 °F 36.7 °F 74% 29.89 in 10.0 mi SSE 4.6 mph - N/A   Scattered Clouds
6:35 AM 42.1 °F 37.1 °F 36.9 °F 82% 29.89 in 10.0 mi SSE 8.1 mph - N/A   Scattered Clouds
6:55 AM 41.9 °F 38.2 °F 37.0 °F 83% 29.88 in 10.0 mi SE 5.8 mph - N/A   Scattered Clouds
7:15 AM 42.1 °F 38.4 °F 37.4 °F 83% 29.87 in 10.0 mi SE 5.8 mph - N/A   Scattered Clouds
7:35 AM 43.7 °F 39.7 °F 38.5 °F 82% 29.87 in 10.0 mi SE 6.9 mph - N/A   Mostly Cloudy
7:55 AM 44.6 °F 43.1 °F 39.4 °F 82% 29.87 in 10.0 mi SE 3.5 mph - N/A   Overcast
8:15 AM 46.4 °F 43.5 °F 41.4 °F 83% 29.86 in 10.0 mi SSE 5.8 mph - N/A   Overcast
8:35 AM 48.2 °F - 42.4 °F 80% 29.85 in 10.0 mi SE 6.9 mph - N/A Rain Rain
8:55 AM 48.4 °F - 44.1 °F 85% 29.86 in 10.0 mi South 4.6 mph - N/A Rain Light Rain
9:15 AM 49.6 °F - 45.0 °F 84% 29.86 in 10.0 mi South 5.8 mph - N/A   Overcast
9:35 AM 51.8 °F - 46.2 °F 81% 29.84 in 10.0 mi South 5.8 mph - N/A   Overcast
9:55 AM 52.9 °F - 46.6 °F 79% 29.84 in 10.0 mi South 6.9 mph - N/A   Overcast
10:15 AM 54.5 °F - 47.8 °F 78% 29.84 in 10.0 mi SSW 5.8 mph - N/A   Overcast
10:35 AM 55.8 °F - 48.9 °F 78% 29.82 in 10.0 mi SSW 6.9 mph - N/A   Overcast
10:55 AM 56.8 °F - 49.8 °F 77% 29.82 in 10.0 mi SSW 9.2 mph - N/A   Overcast
11:15 AM 58.6 °F - 50.9 °F 75% 29.81 in 10.0 mi SSW 10.4 mph 16.1 mph N/A   Overcast
11:35 AM 60.6 °F - 51.8 °F 73% 29.79 in 10.0 mi SSW 11.5 mph 18.4 mph N/A   Scattered Clouds
11:55 AM 62.1 °F - 52.9 °F 72% 29.79 in 10.0 mi SSW 12.7 mph 18.4 mph N/A   Clear
12:15 PM 62.8 °F - 53.4 °F 71% 29.78 in 10.0 mi SW 13.8 mph 18.4 mph N/A   Clear
12:35 PM 64.0 °F - 54.5 °F 71% 29.76 in 10.0 mi SSW 11.5 mph 19.6 mph N/A   Clear
12:55 PM 64.8 °F - 55.2 °F 71% 29.75 in 10.0 mi SSW 13.8 mph 20.7 mph N/A   Clear
1:15 PM 66.7 °F - 56.8 °F 70% 29.73 in 10.0 mi SSW 10.4 mph - N/A   Clear
1:35 PM 65.5 °F - 55.6 °F 70% 29.75 in 10.0 mi SW 16.1 mph 19.6 mph N/A   Scattered Clouds
1:55 PM 65.3 °F - 55.8 °F 71% 29.75 in 10.0 mi SW 9.2 mph 16.1 mph N/A   Overcast
2:15 PM 65.1 °F - 56.3 °F 73% 29.75 in 10.0 mi SW 6.9 mph - N/A   Overcast
2:35 PM 66.0 °F - 56.5 °F 71% 29.74 in 10.0 mi SW 10.4 mph - N/A   Overcast
2:55 PM 65.3 °F - 56.3 °F 73% 29.74 in 10.0 mi WSW 8.1 mph - N/A   Overcast
3:15 PM 64.8 °F - 56.5 °F 74% 29.75 in 10.0 mi WSW 11.5 mph 16.1 mph N/A Rain Light Rain
3:35 PM 64.8 °F - 56.7 °F 75% 29.74 in 10.0 mi SW 8.1 mph - N/A   Overcast
3:55 PM 66.7 °F - 56.7 °F 70% 29.75 in 10.0 mi WSW 8.1 mph - N/A   Scattered Clouds
4:15 PM 68.4 °F - 51.4 °F 55% 29.74 in 10.0 mi West 11.5 mph - N/A   Mostly Cloudy
4:35 PM 67.1 °F - 48.6 °F 51% 29.75 in 10.0 mi West 10.4 mph 18.4 mph N/A   Scattered Clouds
4:55 PM 66.4 °F - 46.6 °F 49% 29.76 in 10.0 mi West 15.0 mph 20.7 mph N/A   Clear
5:15 PM 64.4 °F - 45.7 °F 51% 29.77 in 10.0 mi WNW 10.4 mph 19.6 mph N/A   Clear
5:35 PM 62.1 °F - 42.6 °F 49% 29.79 in 10.0 mi NW 17.3 mph 25.3 mph N/A   Clear
5:55 PM 59.7 °F - 42.6 °F 53% 29.80 in 10.0 mi WNW 9.2 mph 17.3 mph N/A   Clear
6:15 PM 57.7 °F - 41.7 °F 55% 29.81 in 10.0 mi NW 11.5 mph 19.6 mph N/A   Clear
6:35 PM 56.5 °F - 40.5 °F 55% 29.82 in 10.0 mi WNW 10.4 mph 19.6 mph N/A   Clear
6:55 PM 55.8 °F - 40.5 °F 56% 29.82 in 10.0 mi WNW 9.2 mph 16.1 mph N/A   Clear
7:15 PM 55.2 °F - 39.9 °F 56% 29.83 in 10.0 mi WNW 10.4 mph 17.3 mph N/A   Clear
7:35 PM 54.3 °F - 39.2 °F 57% 29.84 in 10.0 mi WNW 6.9 mph 17.3 mph N/A   Clear
7:55 PM 53.8 °F - 38.8 °F 57% 29.84 in 10.0 mi WNW 9.2 mph - N/A   Clear
8:15 PM 52.0 °F - 38.8 °F 61% 29.85 in 10.0 mi WNW 5.8 mph - N/A   Clear
8:35 PM 52.0 °F - 39.2 °F 62% 29.85 in 10.0 mi WNW 10.4 mph - N/A   Clear
8:55 PM 51.4 °F - 39.6 °F 64% 29.86 in 10.0 mi WNW 11.5 mph 18.4 mph N/A   Clear
9:10 PM 50.9 °F - 39.6 °F 65% 29.87 in 10.0 mi WNW 10.4 mph 18.4 mph N/A   Clear
9:35 PM 50.0 °F - 39.7 °F 68% 29.87 in 10.0 mi WNW 10.4 mph 16.1 mph N/A   Clear
9:55 PM 49.6 °F - 39.6 °F 68% 29.88 in 10.0 mi WNW 8.1 mph - N/A   Clear
10:15 PM 49.1 °F - 39.6 °F 70% 29.88 in 10.0 mi WNW 8.1 mph 16.1 mph N/A   Clear
10:35 PM 48.2 °F - 39.2 °F 71% 29.89 in 10.0 mi WNW 8.1 mph - N/A   Clear
11:15 PM 46.9 °F - 39.0 °F 74% 29.89 in 10.0 mi WNW 6.9 mph - N/A   Clear
11:35 PM 46.0 °F 41.9 °F 38.7 °F 75% 29.89 in 10.0 mi WNW 8.1 mph - N/A   Clear
11:55 PM 45.9 °F 41.2 °F 38.5 °F 75% 29.90 in 10.0 mi WNW 9.2 mph - N/A   Clear